Dubuque Regional Airport Dubuque US
ICAO: KDBQ
IATA: DBQ
Category: Large
Scheduled Services: Yes

Elevation: 1077 ft
TransAlt. 18000 ft.

Airport Communications:
ATIS:127.25
CHICAGO CNTR:127
CTAF:119.5
GND:121.8
FORT DODGE RDO:122.05
TWR:119.5
UNICOM:122.95

KDBQ Zoom In..

Runways:

(A) RW 13 length 6502 ft width 100 ft
---- / hdg 132

(B) RW 18 length 6327 ft width 150 ft
---- / hdg 177

(C) RW 31 length 6502 ft width 100 ft
ILS 108.70 / hdg 312

(D) RW 36 length 6327 ft width 150 ft
ILS 110.90 / hdg 357

Location; KDBQ
Day. 09 / Time. 01.53 Zulu
* Altimeter: 30.04
* Temperature: 25° c. 77°f.
* Wind from: 180° Speed 08 kn.
Dewpoint: 23° c.
Visibility: 10 Statute Miles.
Clouds: Clear (automated report).

KDBQ 090153Z AUTO 18008KT 10SM CLR 25/23 A3004 RMK AO2 SLP168 T02500228 $

Going to: --> -->


Wind From 180°
Speed 08 kn.

 
 
jpsmedia worldairports.se 2020   terms of use